createdAt,value
2019-05-28T00:02:18.982Z,12.00
2019-05-28T00:05:08.767Z,12.00
2019-05-28T00:07:58.107Z,11.90
2019-05-28T00:10:47.089Z,11.80
2019-05-28T00:13:36.313Z,11.80
2019-05-28T00:16:26.042Z,11.90
2019-05-28T00:19:15.205Z,11.80
2019-05-28T00:22:03.939Z,11.80
2019-05-28T00:24:53.027Z,11.70
2019-05-28T00:27:42.425Z,11.70
2019-05-28T00:30:32.074Z,11.70
2019-05-28T00:33:21.253Z,11.70
2019-05-28T00:36:10.508Z,11.70
2019-05-28T00:38:59.934Z,11.60
2019-05-28T00:41:49.353Z,11.50
2019-05-28T00:44:38.009Z,11.50
2019-05-28T00:47:27.577Z,11.40
2019-05-28T00:50:17.956Z,11.40
2019-05-28T00:53:06.776Z,11.30
2019-05-28T00:55:56.967Z,11.20
2019-05-28T00:58:46.700Z,11.20
2019-05-28T01:01:35.877Z,11.30
2019-05-28T01:04:24.622Z,11.20
2019-05-28T01:07:14.621Z,11.20
2019-05-28T01:10:07.784Z,11.10
2019-05-28T01:12:56.799Z,11.10
2019-05-28T01:15:46.228Z,11.00
2019-05-28T01:18:35.595Z,10.90
2019-05-28T01:21:25.370Z,10.80
2019-05-28T01:24:14.603Z,10.80
2019-05-28T01:27:04.217Z,10.80
2019-05-28T01:29:53.580Z,10.80
2019-05-28T01:32:42.458Z,10.80
2019-05-28T01:35:40.728Z,10.70
2019-05-28T01:38:29.848Z,10.80
2019-05-28T01:41:19.170Z,10.70
2019-05-28T01:44:08.235Z,10.70
2019-05-28T01:46:57.772Z,10.70
2019-05-28T01:49:46.381Z,10.60
2019-05-28T01:52:35.636Z,10.60
2019-05-28T01:55:24.817Z,10.60
2019-05-28T01:58:13.555Z,10.60
2019-05-28T02:01:12.058Z,10.60
2019-05-28T02:03:53.411Z,10.60
2019-05-28T02:06:42.701Z,10.50
2019-05-28T02:09:32.087Z,10.50
2019-05-28T02:12:21.544Z,10.40
2019-05-28T02:15:14.001Z,10.40
2019-05-28T02:18:03.557Z,10.40
2019-05-28T02:20:53.367Z,10.30
2019-05-28T02:23:41.845Z,10.30
2019-05-28T02:26:30.971Z,10.30
2019-05-28T02:29:19.871Z,10.20
2019-05-28T02:32:09.187Z,10.10
2019-05-28T02:34:58.382Z,10.10
2019-05-28T02:37:47.730Z,10.10
2019-05-28T02:40:37.001Z,10.10
2019-05-28T02:43:25.892Z,10.00
2019-05-28T02:46:15.138Z,10.00
2019-05-28T02:49:03.749Z,10.00
2019-05-28T02:51:53.546Z,9.90
2019-05-28T02:54:43.014Z,9.90
2019-05-28T02:57:34.989Z,9.90
2019-05-28T03:00:24.270Z,9.90
2019-05-28T03:03:15.559Z,9.90
2019-05-28T03:06:07.224Z,9.80
2019-05-28T03:08:58.120Z,9.80
2019-05-28T03:11:47.773Z,9.80
2019-05-28T03:14:36.819Z,9.80
2019-05-28T03:17:28.479Z,9.80
2019-05-28T03:20:17.666Z,9.80
2019-05-28T03:23:08.514Z,9.80
2019-05-28T03:25:57.640Z,9.80
2019-05-28T03:28:47.105Z,9.80
2019-05-28T03:31:36.815Z,9.80
2019-05-28T03:34:26.336Z,9.90
2019-05-28T03:37:16.623Z,9.90
2019-05-28T03:40:07.618Z,9.90
2019-05-28T03:42:57.112Z,10.00
2019-05-28T03:45:46.619Z,10.00
2019-05-28T03:48:36.073Z,10.10
2019-05-28T03:51:24.927Z,10.10
2019-05-28T03:54:14.492Z,10.20
2019-05-28T03:57:03.565Z,10.20
2019-05-28T03:59:52.829Z,10.30
2019-05-28T04:02:42.239Z,10.40
2019-05-28T04:05:32.237Z,10.50
2019-05-28T04:08:21.667Z,10.60
2019-05-28T04:11:10.829Z,10.70
2019-05-28T04:14:00.609Z,10.90
2019-05-28T04:16:49.369Z,11.10
2019-05-28T04:19:38.724Z,11.20
2019-05-28T04:22:27.278Z,11.30
2019-05-28T04:25:16.666Z,11.30
2019-05-28T04:28:05.527Z,11.40
2019-05-28T04:30:54.909Z,11.50
2019-05-28T04:33:44.572Z,11.70
2019-05-28T04:36:33.702Z,11.80
2019-05-28T04:39:23.054Z,11.80
2019-05-28T04:42:12.100Z,11.80
2019-05-28T04:45:01.446Z,11.80
2019-05-28T04:47:50.307Z,11.90
2019-05-28T04:50:39.474Z,12.10
2019-05-28T04:53:28.066Z,12.50
2019-05-28T04:56:17.175Z,13.80
2019-05-28T04:59:06.466Z,15.10
2019-05-28T05:01:55.585Z,15.40
2019-05-28T05:04:45.035Z,16.30
2019-05-28T05:07:33.746Z,17.00
2019-05-28T05:10:22.525Z,17.30
2019-05-28T05:13:11.579Z,17.90
2019-05-28T05:16:01.255Z,18.30
2019-05-28T05:18:50.033Z,19.00
2019-05-28T05:21:39.399Z,19.30
2019-05-28T05:24:28.975Z,19.80
2019-05-28T05:27:18.624Z,20.30
2019-05-28T05:30:08.427Z,20.70
2019-05-28T05:33:16.347Z,20.80
2019-05-28T05:35:48.503Z,20.20
2019-05-28T05:38:37.945Z,21.00
2019-05-28T05:41:27.306Z,20.80
2019-05-28T05:44:16.721Z,20.00
2019-05-28T05:47:05.918Z,20.50
2019-05-28T05:49:55.239Z,20.10
2019-05-28T05:52:44.571Z,20.70
2019-05-28T05:55:33.805Z,20.30
2019-05-28T05:58:22.673Z,19.80
2019-05-28T06:01:12.238Z,20.00
2019-05-28T06:04:00.959Z,19.90
2019-05-28T06:06:50.371Z,19.90
2019-05-28T06:09:39.212Z,18.70
2019-05-28T06:12:28.243Z,18.60
2019-05-28T06:15:17.888Z,18.00
2019-05-28T06:18:07.328Z,17.90
2019-05-28T06:21:09.518Z,17.90
2019-05-28T06:23:46.786Z,18.80
2019-05-28T06:26:36.593Z,19.70
2019-05-28T06:29:24.863Z,21.20
2019-05-28T06:32:13.590Z,21.60
2019-05-28T06:35:01.902Z,21.70
2019-05-28T06:37:50.683Z,20.80
2019-05-28T06:40:39.020Z,19.70
2019-05-28T06:43:27.498Z,20.50
2019-05-28T06:46:15.533Z,19.80
2019-05-28T06:49:03.633Z,19.30
2019-05-28T06:51:52.200Z,19.20
2019-05-28T06:54:41.395Z,18.70
2019-05-28T06:57:29.747Z,17.40
2019-05-28T07:00:18.292Z,18.80
2019-05-28T07:03:06.537Z,19.70
2019-05-28T07:06:06.207Z,21.00
2019-05-28T07:08:44.167Z,21.40
2019-05-28T07:11:32.146Z,21.10
2019-05-28T07:14:20.987Z,21.10
2019-05-28T07:17:09.016Z,21.00
2019-05-28T07:19:57.305Z,20.30
2019-05-28T07:22:46.269Z,18.80
2019-05-28T07:25:34.928Z,17.70
2019-05-28T07:28:23.114Z,17.50
2019-05-28T07:31:12.592Z,18.30
2019-05-28T07:34:00.762Z,18.60
2019-05-28T07:36:50.428Z,19.20
2019-05-28T07:39:39.465Z,18.80
2019-05-28T07:42:32.569Z,19.50
2019-05-28T07:45:18.958Z,19.60
2019-05-28T07:48:09.115Z,19.70
2019-05-28T07:50:58.121Z,19.80
2019-05-28T07:53:47.216Z,19.40
2019-05-28T07:56:35.624Z,18.50
2019-05-28T07:59:25.073Z,18.30
2019-05-28T08:02:14.008Z,17.40
2019-05-28T08:05:02.300Z,17.10
2019-05-28T08:07:51.333Z,16.80
2019-05-28T08:10:40.264Z,16.90
2019-05-28T08:13:40.061Z,17.20
2019-05-28T08:16:19.764Z,16.40
2019-05-28T08:19:08.989Z,16.20
2019-05-28T08:21:58.401Z,16.20
2019-05-28T08:24:47.651Z,16.40
2019-05-28T08:27:37.075Z,16.60
2019-05-28T08:30:26.427Z,17.10
2019-05-28T08:33:15.768Z,17.10
2019-05-28T08:36:05.101Z,17.10
2019-05-28T08:38:54.722Z,17.40
2019-05-28T08:41:43.737Z,17.60
2019-05-28T08:44:33.308Z,17.40
2019-05-28T08:47:23.569Z,17.00
2019-05-28T08:50:13.667Z,16.80
2019-05-28T08:53:02.715Z,16.60
2019-05-28T08:55:51.803Z,16.70
2019-05-28T08:58:40.856Z,16.90
2019-05-28T09:01:30.206Z,17.30
2019-05-28T09:04:19.808Z,17.60
2019-05-28T09:07:08.806Z,17.70
2019-05-28T09:09:57.732Z,17.60
2019-05-28T09:12:46.516Z,17.40
2019-05-28T09:15:36.171Z,17.00
2019-05-28T09:18:25.135Z,17.10
2019-05-28T09:21:14.601Z,17.30
2019-05-28T09:24:04.184Z,17.20
2019-05-28T09:26:53.057Z,17.30
2019-05-28T09:29:42.098Z,17.20
2019-05-28T09:32:31.686Z,17.40
2019-05-28T09:35:20.621Z,16.90
2019-05-28T09:38:10.494Z,16.80
2019-05-28T09:40:59.703Z,16.90
2019-05-28T09:43:48.106Z,17.40
2019-05-28T09:46:37.497Z,17.90
2019-05-28T09:49:26.677Z,18.00
2019-05-28T09:52:15.866Z,17.80
2019-05-28T09:55:07.899Z,17.60
2019-05-28T09:57:57.272Z,17.70
2019-05-28T10:00:57.565Z,18.20
2019-05-28T10:03:36.911Z,17.80
2019-05-28T10:06:36.795Z,17.80
2019-05-28T10:09:16.860Z,17.20
2019-05-28T10:12:06.781Z,16.70
2019-05-28T10:14:55.427Z,17.10
2019-05-28T10:17:44.595Z,17.80
2019-05-28T10:20:37.770Z,17.70
2019-05-28T10:23:25.485Z,17.40
2019-05-28T10:26:14.746Z,17.10
2019-05-28T10:29:04.228Z,16.90
2019-05-28T10:31:53.294Z,17.20
2019-05-28T10:34:42.386Z,17.40
2019-05-28T10:37:31.917Z,17.60
2019-05-28T10:40:21.476Z,17.90
2019-05-28T10:43:10.279Z,17.80
2019-05-28T10:45:59.461Z,17.60
2019-05-28T10:48:48.342Z,17.50
2019-05-28T10:51:37.672Z,17.70
2019-05-28T10:54:27.016Z,17.60
2019-05-28T10:57:16.312Z,17.60
2019-05-28T11:00:08.141Z,17.70
2019-05-28T11:02:57.725Z,17.40
2019-05-28T11:05:47.390Z,17.40
2019-05-28T11:08:36.963Z,17.40
2019-05-28T11:11:26.549Z,17.10
2019-05-28T11:14:15.611Z,16.90
2019-05-28T11:17:04.782Z,16.30
2019-05-28T11:19:53.807Z,16.90
2019-05-28T11:22:43.015Z,17.20
2019-05-28T11:25:31.634Z,17.10
2019-05-28T11:28:20.540Z,16.80
2019-05-28T11:31:09.999Z,17.20
2019-05-28T11:33:58.909Z,16.80
2019-05-28T11:36:48.338Z,17.10
2019-05-28T11:39:37.290Z,17.40
2019-05-28T11:42:26.870Z,17.50
2019-05-28T11:45:19.037Z,17.80
2019-05-28T11:48:08.754Z,17.80
2019-05-28T11:50:57.643Z,17.70
2019-05-28T11:53:46.323Z,17.50
2019-05-28T11:56:35.989Z,17.30
2019-05-28T11:59:25.095Z,17.50
2019-05-28T12:02:14.323Z,17.60
2019-05-28T12:05:04.365Z,17.60
2019-05-28T12:07:53.987Z,17.60
2019-05-28T12:10:43.321Z,17.80
2019-05-28T12:13:32.269Z,17.60
2019-05-28T12:16:21.061Z,17.40
2019-05-28T12:19:10.652Z,17.60
2019-05-28T12:22:00.030Z,17.80
2019-05-28T12:24:49.433Z,17.80
2019-05-28T12:27:38.917Z,18.00
2019-05-28T12:30:30.243Z,17.90
2019-05-28T12:33:19.169Z,18.60
2019-05-28T12:36:10.698Z,18.70
2019-05-28T12:39:00.427Z,18.60
2019-05-28T12:42:01.745Z,18.60
2019-05-28T12:44:42.588Z,19.10
2019-05-28T12:47:31.133Z,18.50
2019-05-28T12:50:22.902Z,18.10
2019-05-28T12:53:12.444Z,17.80
2019-05-28T12:56:02.023Z,17.80
2019-05-28T12:58:51.285Z,18.20
2019-05-28T13:01:40.023Z,18.30
2019-05-28T13:04:29.620Z,18.50
2019-05-28T13:07:18.399Z,18.10
2019-05-28T13:10:09.433Z,17.90
2019-05-28T13:12:58.947Z,17.20
2019-05-28T13:15:48.626Z,16.70
2019-05-28T13:18:38.012Z,16.80
2019-05-28T13:21:27.314Z,16.60
2019-05-28T13:24:16.896Z,16.50
2019-05-28T13:27:17.428Z,16.30
2019-05-28T13:29:57.247Z,16.60
2019-05-28T13:32:46.683Z,17.40
2019-05-28T13:35:36.431Z,17.90
2019-05-28T13:38:27.426Z,17.90
2019-05-28T13:41:16.393Z,17.70
2019-05-28T13:44:08.085Z,17.50
2019-05-28T13:46:57.010Z,17.60
2019-05-28T13:49:46.560Z,17.30
2019-05-28T13:52:35.409Z,17.20
2019-05-28T13:55:25.387Z,17.00
2019-05-28T13:58:14.537Z,17.00
2019-05-28T14:01:03.641Z,17.10
2019-05-28T14:03:52.681Z,17.20
2019-05-28T14:06:44.408Z,17.00
2019-05-28T14:09:32.445Z,17.10
2019-05-28T14:12:21.955Z,17.30
2019-05-28T14:15:12.948Z,17.40
2019-05-28T14:18:02.203Z,17.30
2019-05-28T14:20:51.060Z,17.30
2019-05-28T14:23:39.803Z,17.00
2019-05-28T14:26:29.082Z,16.90
2019-05-28T14:29:19.682Z,17.00
2019-05-28T14:32:08.927Z,16.80
2019-05-28T14:34:58.319Z,16.80
2019-05-28T14:37:47.673Z,16.60
2019-05-28T14:40:37.027Z,16.50
2019-05-28T14:43:26.273Z,16.60
2019-05-28T14:46:15.609Z,16.70
2019-05-28T14:49:07.720Z,16.70
2019-05-28T14:51:55.795Z,16.70
2019-05-28T14:54:45.464Z,16.60
2019-05-28T14:57:34.181Z,16.50
2019-05-28T15:00:23.916Z,16.80
2019-05-28T15:03:12.998Z,17.00
2019-05-28T15:06:02.177Z,17.10
2019-05-28T15:08:51.168Z,17.00
2019-05-28T15:11:40.785Z,17.10
2019-05-28T15:14:29.647Z,17.20
2019-05-28T15:17:18.902Z,17.40
2019-05-28T15:20:10.117Z,17.30
2019-05-28T15:22:59.297Z,17.20
2019-05-28T15:25:48.632Z,17.50
2019-05-28T15:28:37.477Z,17.60
2019-05-28T15:31:26.999Z,17.40
2019-05-28T15:34:15.721Z,17.70
2019-05-28T15:37:04.812Z,18.10
2019-05-28T15:39:53.564Z,18.20
2019-05-28T15:42:42.950Z,18.10
2019-05-28T15:45:32.041Z,17.90
2019-05-28T15:48:21.448Z,17.40
2019-05-28T15:51:10.755Z,17.40
2019-05-28T15:54:00.010Z,16.90
2019-05-28T15:56:49.291Z,16.70
2019-05-28T15:59:38.622Z,16.30
2019-05-28T16:02:27.422Z,16.00
2019-05-28T16:05:16.979Z,16.00
2019-05-28T16:08:06.682Z,15.90
2019-05-28T16:10:55.636Z,16.30
2019-05-28T16:13:44.909Z,16.20
2019-05-28T16:16:34.578Z,16.30
2019-05-28T16:19:23.746Z,16.40
2019-05-28T16:22:13.429Z,16.20
2019-05-28T16:25:05.885Z,16.10
2019-05-28T16:27:55.145Z,16.10
2019-05-28T16:30:44.520Z,16.20
2019-05-28T16:33:33.891Z,16.10
2019-05-28T16:36:23.069Z,16.20
2019-05-28T16:39:12.641Z,16.10
2019-05-28T16:42:01.506Z,16.00
2019-05-28T16:44:50.596Z,16.00
2019-05-28T16:47:40.086Z,16.00
2019-05-28T16:50:28.925Z,15.90
2019-05-28T16:53:18.156Z,15.90
2019-05-28T16:56:07.012Z,15.90
2019-05-28T16:58:56.188Z,16.00
2019-05-28T17:01:44.839Z,16.00
2019-05-28T17:04:33.910Z,15.80
2019-05-28T17:07:23.486Z,15.70
2019-05-28T17:10:30.801Z,15.60
2019-05-28T17:13:05.073Z,15.50
2019-05-28T17:15:54.147Z,15.40
2019-05-28T17:18:43.947Z,15.30
2019-05-28T17:21:33.039Z,15.10
2019-05-28T17:24:22.135Z,15.10
2019-05-28T17:27:11.769Z,15.10
2019-05-28T17:30:17.404Z,14.80
2019-05-28T17:32:51.827Z,14.70
2019-05-28T17:35:41.488Z,14.70
2019-05-28T17:38:30.289Z,14.60
2019-05-28T17:41:20.149Z,14.50
2019-05-28T17:44:09.518Z,14.40
2019-05-28T17:46:58.303Z,14.40
2019-05-28T17:49:47.771Z,14.30
2019-05-28T17:52:36.814Z,14.20
2019-05-28T17:55:25.991Z,14.20
2019-05-28T17:58:14.842Z,14.10
2019-05-28T18:01:04.114Z,14.00
2019-05-28T18:03:53.590Z,14.00
2019-05-28T18:06:42.897Z,13.90
2019-05-28T18:09:32.237Z,13.80
2019-05-28T18:12:21.287Z,13.80
2019-05-28T18:15:10.584Z,13.80
2019-05-28T18:18:00.343Z,13.70
2019-05-28T18:20:49.711Z,13.60
2019-05-28T18:23:39.092Z,13.50
2019-05-28T18:26:28.617Z,13.40
2019-05-28T18:29:17.934Z,13.40
2019-05-28T18:32:07.473Z,13.30
2019-05-28T18:34:57.292Z,13.20
2019-05-28T18:37:46.294Z,13.00
2019-05-28T18:40:36.290Z,12.90
2019-05-28T18:43:25.707Z,12.90
2019-05-28T18:46:15.604Z,12.80
2019-05-28T18:49:05.382Z,12.70
2019-05-28T18:51:53.843Z,12.70
2019-05-28T18:54:42.993Z,12.60
2019-05-28T18:57:32.051Z,12.50
2019-05-28T19:00:21.948Z,12.50
2019-05-28T19:03:10.984Z,12.40
2019-05-28T19:05:59.969Z,12.40
2019-05-28T19:08:48.694Z,12.30
2019-05-28T19:11:38.521Z,12.20
2019-05-28T19:14:29.628Z,12.10
2019-05-28T19:17:19.001Z,12.00
2019-05-28T19:20:09.184Z,12.00
2019-05-28T19:22:58.084Z,11.90
2019-05-28T19:25:47.248Z,11.90
2019-05-28T19:28:35.877Z,11.80
2019-05-28T19:31:25.035Z,11.70
2019-05-28T19:34:14.100Z,11.60
2019-05-28T19:37:04.931Z,11.60
2019-05-28T19:39:54.475Z,11.60
2019-05-28T19:42:43.165Z,11.60
2019-05-28T19:45:32.302Z,11.50
2019-05-28T19:48:21.421Z,11.40
2019-05-28T19:51:10.746Z,11.40
2019-05-28T19:54:01.460Z,11.30
2019-05-28T19:56:51.125Z,11.20
2019-05-28T19:59:39.879Z,11.10
2019-05-28T20:02:28.846Z,11.00
2019-05-28T20:05:19.041Z,11.00
2019-05-28T20:08:08.805Z,10.90
2019-05-28T20:10:58.085Z,10.80
2019-05-28T20:13:47.262Z,10.80
2019-05-28T20:16:36.534Z,10.80
2019-05-28T20:19:25.655Z,10.70
2019-05-28T20:22:14.962Z,10.50
2019-05-28T20:25:05.967Z,10.50
2019-05-28T20:27:55.929Z,10.50
2019-05-28T20:30:45.322Z,10.40
2019-05-28T20:33:34.068Z,10.40
2019-05-28T20:36:23.357Z,10.40
2019-05-28T20:39:12.342Z,10.30
2019-05-28T20:42:01.991Z,10.30
2019-05-28T20:44:50.703Z,10.20
2019-05-28T20:47:40.021Z,10.20
2019-05-28T20:50:29.079Z,10.10
2019-05-28T20:53:18.625Z,10.00
2019-05-28T20:56:08.079Z,9.90
2019-05-28T20:59:00.979Z,10.00
2019-05-28T21:01:49.642Z,9.90
2019-05-28T21:04:41.538Z,9.90
2019-05-28T21:07:28.589Z,9.80
2019-05-28T21:10:18.788Z,9.70
2019-05-28T21:13:08.362Z,9.70
2019-05-28T21:15:57.606Z,9.70
2019-05-28T21:18:46.797Z,9.60
2019-05-28T21:21:35.549Z,9.50
2019-05-28T21:24:24.531Z,9.50
2019-05-28T21:27:13.887Z,9.50
2019-05-28T21:30:02.787Z,9.50
2019-05-28T21:32:52.598Z,9.50
2019-05-28T21:35:41.998Z,9.50
2019-05-28T21:38:31.475Z,9.40
2019-05-28T21:41:20.798Z,9.30
2019-05-28T21:44:10.256Z,9.30
2019-05-28T21:47:00.410Z,9.20
2019-05-28T21:49:50.089Z,9.20
2019-05-28T21:52:39.366Z,9.20
2019-05-28T21:55:28.246Z,9.20
2019-05-28T21:58:17.729Z,9.20
2019-05-28T22:01:20.279Z,9.10
2019-05-28T22:04:09.585Z,9.10
2019-05-28T22:06:59.430Z,8.90
2019-05-28T22:09:48.628Z,8.90
2019-05-28T22:12:39.707Z,8.80
2019-05-28T22:15:29.596Z,8.80
2019-05-28T22:18:18.966Z,8.80
2019-05-28T22:21:08.584Z,8.80
2019-05-28T22:23:58.498Z,8.70
2019-05-28T22:26:47.728Z,8.70
2019-05-28T22:29:37.579Z,8.70
2019-05-28T22:32:26.749Z,8.70
2019-05-28T22:35:16.394Z,8.70
2019-05-28T22:38:05.592Z,8.60
2019-05-28T22:40:56.125Z,8.50
2019-05-28T22:43:45.870Z,8.50
2019-05-28T22:46:35.128Z,8.50
2019-05-28T22:49:24.512Z,8.50
2019-05-28T22:52:13.844Z,8.40
2019-05-28T22:55:03.951Z,8.40
2019-05-28T22:57:53.239Z,8.40
2019-05-28T23:00:42.234Z,8.30
2019-05-28T23:03:31.470Z,8.30
2019-05-28T23:06:20.737Z,8.30
2019-05-28T23:09:10.321Z,8.20
2019-05-28T23:11:59.682Z,8.20
2019-05-28T23:14:49.479Z,8.10
2019-05-28T23:17:38.447Z,8.10
2019-05-28T23:20:27.921Z,8.10
2019-05-28T23:23:16.981Z,8.00
2019-05-28T23:26:05.950Z,8.00
2019-05-28T23:28:54.693Z,7.90
2019-05-28T23:31:43.746Z,7.90
2019-05-28T23:34:33.543Z,7.80
2019-05-28T23:37:22.903Z,7.80
2019-05-28T23:40:13.383Z,7.80
2019-05-28T23:43:03.283Z,7.90
2019-05-28T23:45:52.668Z,7.80
2019-05-28T23:48:41.329Z,7.80
2019-05-28T23:51:30.181Z,7.80
2019-05-28T23:54:19.675Z,7.70
2019-05-28T23:57:08.413Z,7.70
2019-05-28T23:59:57.069Z,7.70
